sensor_id;sensor_type;location;lat;lon;timestamp;pressure;altitude;pressure_sealevel;temperature
35582;BMP180;21687;48.900;9.188;2023-05-21T00:00:40;98086.00;;;14.90
35582;BMP180;21687;48.900;9.188;2023-05-21T00:03:07;98076.00;;;14.90
35582;BMP180;21687;48.900;9.188;2023-05-21T00:05:39;98086.00;;;14.90
35582;BMP180;21687;48.900;9.188;2023-05-21T00:08:06;98094.00;;;14.90
35582;BMP180;21687;48.900;9.188;2023-05-21T00:10:32;98083.00;;;14.80
35582;BMP180;21687;48.900;9.188;2023-05-21T00:12:58;98073.00;;;14.80
35582;BMP180;21687;48.900;9.188;2023-05-21T00:15:25;98083.00;;;14.80
35582;BMP180;21687;48.900;9.188;2023-05-21T00:17:51;98072.00;;;14.80
35582;BMP180;21687;48.900;9.188;2023-05-21T00:20:17;98081.00;;;14.70
35582;BMP180;21687;48.900;9.188;2023-05-21T00:22:43;98072.00;;;14.60
35582;BMP180;21687;48.900;9.188;2023-05-21T00:25:10;98068.00;;;14.60
35582;BMP180;21687;48.900;9.188;2023-05-21T00:27:37;98074.00;;;14.60
35582;BMP180;21687;48.900;9.188;2023-05-21T00:30:04;98066.00;;;14.50
35582;BMP180;21687;48.900;9.188;2023-05-21T00:32:30;98063.00;;;14.50
35582;BMP180;21687;48.900;9.188;2023-05-21T00:34:56;98052.00;;;14.40
35582;BMP180;21687;48.900;9.188;2023-05-21T00:37:23;98059.00;;;14.40
35582;BMP180;21687;48.900;9.188;2023-05-21T00:39:50;98059.00;;;14.40
35582;BMP180;21687;48.900;9.188;2023-05-21T00:42:16;98056.00;;;14.40
35582;BMP180;21687;48.900;9.188;2023-05-21T00:44:44;98057.00;;;14.30
35582;BMP180;21687;48.900;9.188;2023-05-21T00:47:12;98060.00;;;14.30
35582;BMP180;21687;48.900;9.188;2023-05-21T00:49:39;98045.00;;;14.30
35582;BMP180;21687;48.900;9.188;2023-05-21T00:52:06;98049.00;;;14.30
35582;BMP180;21687;48.900;9.188;2023-05-21T00:54:32;98048.00;;;14.30
35582;BMP180;21687;48.900;9.188;2023-05-21T00:56:59;98044.00;;;14.30
35582;BMP180;21687;48.900;9.188;2023-05-21T00:59:26;98047.00;;;14.30
35582;BMP180;21687;48.900;9.188;2023-05-21T01:01:52;98046.00;;;14.20
35582;BMP180;21687;48.900;9.188;2023-05-21T01:04:24;98044.00;;;14.20
35582;BMP180;21687;48.900;9.188;2023-05-21T01:06:50;98049.00;;;14.20
35582;BMP180;21687;48.900;9.188;2023-05-21T01:09:18;98049.00;;;14.20
35582;BMP180;21687;48.900;9.188;2023-05-21T01:11:47;98040.00;;;14.10
35582;BMP180;21687;48.900;9.188;2023-05-21T01:14:16;98033.00;;;14.10
35582;BMP180;21687;48.900;9.188;2023-05-21T01:16:46;98036.00;;;14.10
35582;BMP180;21687;48.900;9.188;2023-05-21T01:19:17;98037.00;;;14.20
35582;BMP180;21687;48.900;9.188;2023-05-21T01:21:48;98040.00;;;14.20
35582;BMP180;21687;48.900;9.188;2023-05-21T01:24:15;98033.00;;;14.20
35582;BMP180;21687;48.900;9.188;2023-05-21T01:26:41;98033.00;;;14.20
35582;BMP180;21687;48.900;9.188;2023-05-21T01:29:09;98032.00;;;14.10
35582;BMP180;21687;48.900;9.188;2023-05-21T01:37:26;98037.00;;;14.00
35582;BMP180;21687;48.900;9.188;2023-05-21T01:40:04;98036.00;;;14.00
35582;BMP180;21687;48.900;9.188;2023-05-21T01:42:35;98036.00;;;14.00
35582;BMP180;21687;48.900;9.188;2023-05-21T01:45:04;98030.00;;;13.90
35582;BMP180;21687;48.900;9.188;2023-05-21T01:47:32;98030.00;;;13.90
35582;BMP180;21687;48.900;9.188;2023-05-21T01:50:00;98029.00;;;13.80
35582;BMP180;21687;48.900;9.188;2023-05-21T01:52:27;98022.00;;;13.80
35582;BMP180;21687;48.900;9.188;2023-05-21T01:54:55;98025.00;;;13.80
35582;BMP180;21687;48.900;9.188;2023-05-21T01:57:21;98032.00;;;13.80
35582;BMP180;21687;48.900;9.188;2023-05-21T01:59:48;98024.00;;;13.80
35582;BMP180;21687;48.900;9.188;2023-05-21T02:02:14;98010.00;;;13.80
35582;BMP180;21687;48.900;9.188;2023-05-21T02:04:41;98013.00;;;13.70
35582;BMP180;21687;48.900;9.188;2023-05-21T02:07:09;98012.00;;;13.80
35582;BMP180;21687;48.900;9.188;2023-05-21T02:09:35;98012.00;;;13.80
35582;BMP180;21687;48.900;9.188;2023-05-21T02:12:02;98018.00;;;13.70
35582;BMP180;21687;48.900;9.188;2023-05-21T02:14:29;98013.00;;;13.70
35582;BMP180;21687;48.900;9.188;2023-05-21T02:16:55;98017.00;;;13.70
35582;BMP180;21687;48.900;9.188;2023-05-21T02:19:22;98011.00;;;13.60
35582;BMP180;21687;48.900;9.188;2023-05-21T02:21:49;98023.00;;;13.60
35582;BMP180;21687;48.900;9.188;2023-05-21T02:24:15;98010.00;;;13.50
35582;BMP180;21687;48.900;9.188;2023-05-21T02:26:41;97999.00;;;13.50
35582;BMP180;21687;48.900;9.188;2023-05-21T02:29:08;98002.00;;;13.40
35582;BMP180;21687;48.900;9.188;2023-05-21T02:31:34;98008.00;;;13.40
35582;BMP180;21687;48.900;9.188;2023-05-21T02:34:01;98003.00;;;13.40
35582;BMP180;21687;48.900;9.188;2023-05-21T02:36:27;98004.00;;;13.30
35582;BMP180;21687;48.900;9.188;2023-05-21T02:38:54;98001.00;;;13.30
35582;BMP180;21687;48.900;9.188;2023-05-21T02:41:22;97998.00;;;13.30
35582;BMP180;21687;48.900;9.188;2023-05-21T02:43:48;97999.00;;;13.30
35582;BMP180;21687;48.900;9.188;2023-05-21T02:46:15;98002.00;;;13.30
35582;BMP180;21687;48.900;9.188;2023-05-21T02:48:41;98005.00;;;13.20
35582;BMP180;21687;48.900;9.188;2023-05-21T02:51:07;98004.00;;;13.10
35582;BMP180;21687;48.900;9.188;2023-05-21T02:53:33;97999.00;;;13.10
35582;BMP180;21687;48.900;9.188;2023-05-21T02:56:00;98007.00;;;13.00
35582;BMP180;21687;48.900;9.188;2023-05-21T02:58:26;98003.00;;;13.00
35582;BMP180;21687;48.900;9.188;2023-05-21T03:00:53;97995.00;;;13.00
35582;BMP180;21687;48.900;9.188;2023-05-21T03:03:19;97996.00;;;12.90
35582;BMP180;21687;48.900;9.188;2023-05-21T03:05:45;98008.00;;;12.90
35582;BMP180;21687;48.900;9.188;2023-05-21T03:08:13;97996.00;;;12.90
35582;BMP180;21687;48.900;9.188;2023-05-21T03:10:39;97993.00;;;12.90
35582;BMP180;21687;48.900;9.188;2023-05-21T03:13:05;97993.00;;;12.90
35582;BMP180;21687;48.900;9.188;2023-05-21T03:15:31;98005.00;;;12.90
35582;BMP180;21687;48.900;9.188;2023-05-21T03:17:59;97993.00;;;12.90
35582;BMP180;21687;48.900;9.188;2023-05-21T03:20:25;97991.00;;;12.90
35582;BMP180;21687;48.900;9.188;2023-05-21T03:22:53;97989.00;;;12.90
35582;BMP180;21687;48.900;9.188;2023-05-21T03:25:20;97990.00;;;12.80
35582;BMP180;21687;48.900;9.188;2023-05-21T03:27:50;97994.00;;;12.80
35582;BMP180;21687;48.900;9.188;2023-05-21T03:30:17;97989.00;;;12.80
35582;BMP180;21687;48.900;9.188;2023-05-21T03:32:43;97989.00;;;12.70
35582;BMP180;21687;48.900;9.188;2023-05-21T03:35:10;97985.00;;;12.70
35582;BMP180;21687;48.900;9.188;2023-05-21T03:37:36;97989.00;;;12.70
35582;BMP180;21687;48.900;9.188;2023-05-21T03:40:02;97994.00;;;12.60
35582;BMP180;21687;48.900;9.188;2023-05-21T03:42:29;97986.00;;;12.60
35582;BMP180;21687;48.900;9.188;2023-05-21T03:44:55;97987.00;;;12.60
35582;BMP180;21687;48.900;9.188;2023-05-21T03:47:22;97988.00;;;12.60
35582;BMP180;21687;48.900;9.188;2023-05-21T03:49:48;97984.00;;;12.60
35582;BMP180;21687;48.900;9.188;2023-05-21T03:52:14;97993.00;;;12.60
35582;BMP180;21687;48.900;9.188;2023-05-21T03:54:41;97990.00;;;12.60
35582;BMP180;21687;48.900;9.188;2023-05-21T03:57:07;97990.00;;;12.60
35582;BMP180;21687;48.900;9.188;2023-05-21T03:59:33;97986.00;;;12.60
35582;BMP180;21687;48.900;9.188;2023-05-21T04:01:59;97987.00;;;12.60
35582;BMP180;21687;48.900;9.188;2023-05-21T04:04:26;97986.00;;;12.50
35582;BMP180;21687;48.900;9.188;2023-05-21T04:06:54;97994.00;;;12.50
35582;BMP180;21687;48.900;9.188;2023-05-21T04:09:20;97997.00;;;12.50
35582;BMP180;21687;48.900;9.188;2023-05-21T04:11:47;97997.00;;;12.60
35582;BMP180;21687;48.900;9.188;2023-05-21T04:14:13;97997.00;;;12.60
35582;BMP180;21687;48.900;9.188;2023-05-21T04:16:39;98004.00;;;12.70
35582;BMP180;21687;48.900;9.188;2023-05-21T04:19:08;98004.00;;;12.70
35582;BMP180;21687;48.900;9.188;2023-05-21T04:21:35;98016.00;;;12.70
35582;BMP180;21687;48.900;9.188;2023-05-21T04:24:01;98012.00;;;12.70
35582;BMP180;21687;48.900;9.188;2023-05-21T04:26:31;98028.00;;;12.70
35582;BMP180;21687;48.900;9.188;2023-05-21T04:28:59;98013.00;;;12.80
35582;BMP180;21687;48.900;9.188;2023-05-21T04:31:29;98025.00;;;12.80
35582;BMP180;21687;48.900;9.188;2023-05-21T04:33:57;98024.00;;;12.80
35582;BMP180;21687;48.900;9.188;2023-05-21T04:36:24;98027.00;;;12.90
35582;BMP180;21687;48.900;9.188;2023-05-21T04:38:50;98023.00;;;12.90
35582;BMP180;21687;48.900;9.188;2023-05-21T04:41:16;98031.00;;;13.00
35582;BMP180;21687;48.900;9.188;2023-05-21T04:43:44;98028.00;;;13.00
35582;BMP180;21687;48.900;9.188;2023-05-21T04:46:10;98035.00;;;13.10
35582;BMP180;21687;48.900;9.188;2023-05-21T04:48:36;98041.00;;;13.20
35582;BMP180;21687;48.900;9.188;2023-05-21T04:51:03;98032.00;;;13.20
35582;BMP180;21687;48.900;9.188;2023-05-21T04:53:30;98033.00;;;13.30
35582;BMP180;21687;48.900;9.188;2023-05-21T04:55:58;98033.00;;;13.40
35582;BMP180;21687;48.900;9.188;2023-05-21T04:58:25;98030.00;;;13.40
35582;BMP180;21687;48.900;9.188;2023-05-21T05:00:52;98025.00;;;13.50
35582;BMP180;21687;48.900;9.188;2023-05-21T05:03:19;98030.00;;;13.60
35582;BMP180;21687;48.900;9.188;2023-05-21T05:05:45;98033.00;;;13.60
35582;BMP180;21687;48.900;9.188;2023-05-21T05:08:12;98029.00;;;13.70
35582;BMP180;21687;48.900;9.188;2023-05-21T05:10:38;98030.00;;;13.80
35582;BMP180;21687;48.900;9.188;2023-05-21T05:13:04;98036.00;;;13.80
35582;BMP180;21687;48.900;9.188;2023-05-21T05:15:31;98032.00;;;13.80
35582;BMP180;21687;48.900;9.188;2023-05-21T05:17:57;98032.00;;;13.90
35582;BMP180;21687;48.900;9.188;2023-05-21T05:20:23;98034.00;;;14.00
35582;BMP180;21687;48.900;9.188;2023-05-21T05:22:49;98032.00;;;14.10
35582;BMP180;21687;48.900;9.188;2023-05-21T05:25:16;98032.00;;;14.20
35582;BMP180;21687;48.900;9.188;2023-05-21T05:27:42;98033.00;;;14.30
35582;BMP180;21687;48.900;9.188;2023-05-21T05:30:09;98026.00;;;14.30
35582;BMP180;21687;48.900;9.188;2023-05-21T05:32:35;98033.00;;;14.30
35582;BMP180;21687;48.900;9.188;2023-05-21T05:35:02;98027.00;;;14.40
35582;BMP180;21687;48.900;9.188;2023-05-21T05:37:28;98030.00;;;14.60
35582;BMP180;21687;48.900;9.188;2023-05-21T05:39:54;98026.00;;;14.60
35582;BMP180;21687;48.900;9.188;2023-05-21T05:42:21;98029.00;;;14.60
35582;BMP180;21687;48.900;9.188;2023-05-21T05:44:47;98036.00;;;14.80
35582;BMP180;21687;48.900;9.188;2023-05-21T05:47:13;98026.00;;;14.80
35582;BMP180;21687;48.900;9.188;2023-05-21T05:49:39;98038.00;;;14.90
35582;BMP180;21687;48.900;9.188;2023-05-21T05:52:06;98040.00;;;15.00
35582;BMP180;21687;48.900;9.188;2023-05-21T05:54:33;98041.00;;;15.00
35582;BMP180;21687;48.900;9.188;2023-05-21T05:56:59;98035.00;;;15.10
35582;BMP180;21687;48.900;9.188;2023-05-21T05:59:25;98042.00;;;15.20
35582;BMP180;21687;48.900;9.188;2023-05-21T06:01:51;98043.00;;;15.20
35582;BMP180;21687;48.900;9.188;2023-05-21T06:04:18;98038.00;;;15.20
35582;BMP180;21687;48.900;9.188;2023-05-21T06:06:44;98040.00;;;15.30
35582;BMP180;21687;48.900;9.188;2023-05-21T06:09:11;98040.00;;;15.40
35582;BMP180;21687;48.900;9.188;2023-05-21T06:11:37;98037.00;;;15.50
35582;BMP180;21687;48.900;9.188;2023-05-21T06:14:03;98047.00;;;15.60
35582;BMP180;21687;48.900;9.188;2023-05-21T06:16:29;98045.00;;;15.70
35582;BMP180;21687;48.900;9.188;2023-05-21T06:18:56;98047.00;;;15.70
35582;BMP180;21687;48.900;9.188;2023-05-21T06:21:22;98039.00;;;16.00
35582;BMP180;21687;48.900;9.188;2023-05-21T06:23:49;98046.00;;;16.20
35582;BMP180;21687;48.900;9.188;2023-05-21T06:26:15;98048.00;;;16.60
35582;BMP180;21687;48.900;9.188;2023-05-21T06:28:43;98042.00;;;16.70
35582;BMP180;21687;48.900;9.188;2023-05-21T06:31:10;98043.00;;;16.80
35582;BMP180;21687;48.900;9.188;2023-05-21T06:33:36;98049.00;;;17.10
35582;BMP180;21687;48.900;9.188;2023-05-21T06:36:03;98040.00;;;17.30
35582;BMP180;21687;48.900;9.188;2023-05-21T06:38:29;98046.00;;;17.70
35582;BMP180;21687;48.900;9.188;2023-05-21T06:40:56;98044.00;;;17.60
35582;BMP180;21687;48.900;9.188;2023-05-21T06:43:23;98049.00;;;18.20
35582;BMP180;21687;48.900;9.188;2023-05-21T06:45:50;98052.00;;;18.70
35582;BMP180;21687;48.900;9.188;2023-05-21T06:48:16;98045.00;;;18.90
35582;BMP180;21687;48.900;9.188;2023-05-21T06:50:42;98047.00;;;19.50
35582;BMP180;21687;48.900;9.188;2023-05-21T06:53:09;98045.00;;;19.80
35582;BMP180;21687;48.900;9.188;2023-05-21T06:55:35;98052.00;;;20.30
35582;BMP180;21687;48.900;9.188;2023-05-21T06:58:02;98055.00;;;20.90
35582;BMP180;21687;48.900;9.188;2023-05-21T07:00:28;98060.00;;;21.10
35582;BMP180;21687;48.900;9.188;2023-05-21T07:02:54;98064.00;;;20.80
35582;BMP180;21687;48.900;9.188;2023-05-21T07:05:20;98056.00;;;20.80
35582;BMP180;21687;48.900;9.188;2023-05-21T07:07:46;98052.00;;;20.80
35582;BMP180;21687;48.900;9.188;2023-05-21T07:10:13;98060.00;;;20.50
35582;BMP180;21687;48.900;9.188;2023-05-21T07:12:39;98059.00;;;20.20
35582;BMP180;21687;48.900;9.188;2023-05-21T07:15:06;98062.00;;;20.40
35582;BMP180;21687;48.900;9.188;2023-05-21T07:17:32;98062.00;;;20.50
35582;BMP180;21687;48.900;9.188;2023-05-21T07:19:59;98065.00;;;20.60
35582;BMP180;21687;48.900;9.188;2023-05-21T07:22:25;98056.00;;;20.20
35582;BMP180;21687;48.900;9.188;2023-05-21T07:24:51;98063.00;;;20.20
35582;BMP180;21687;48.900;9.188;2023-05-21T07:27:18;98073.00;;;20.10
35582;BMP180;21687;48.900;9.188;2023-05-21T07:29:44;98070.00;;;20.50
35582;BMP180;21687;48.900;9.188;2023-05-21T07:32:11;98074.00;;;20.30
35582;BMP180;21687;48.900;9.188;2023-05-21T07:34:37;98064.00;;;20.30
35582;BMP180;21687;48.900;9.188;2023-05-21T07:37:03;98068.00;;;20.40
35582;BMP180;21687;48.900;9.188;2023-05-21T07:39:30;98067.00;;;20.10
35582;BMP180;21687;48.900;9.188;2023-05-21T07:41:56;98067.00;;;20.30
35582;BMP180;21687;48.900;9.188;2023-05-21T07:44:23;98065.00;;;20.70
35582;BMP180;21687;48.900;9.188;2023-05-21T07:46:49;98062.00;;;20.60
35582;BMP180;21687;48.900;9.188;2023-05-21T07:49:15;98069.00;;;20.40
35582;BMP180;21687;48.900;9.188;2023-05-21T07:51:42;98062.00;;;20.10
35582;BMP180;21687;48.900;9.188;2023-05-21T07:54:09;98060.00;;;19.90
35582;BMP180;21687;48.900;9.188;2023-05-21T07:56:36;98054.00;;;20.20
35582;BMP180;21687;48.900;9.188;2023-05-21T07:59:02;98061.00;;;20.70
35582;BMP180;21687;48.900;9.188;2023-05-21T08:01:28;98058.00;;;21.10
35582;BMP180;21687;48.900;9.188;2023-05-21T08:03:55;98058.00;;;20.90
35582;BMP180;21687;48.900;9.188;2023-05-21T08:06:21;98072.00;;;21.00
35582;BMP180;21687;48.900;9.188;2023-05-21T08:08:49;98069.00;;;21.10
35582;BMP180;21687;48.900;9.188;2023-05-21T08:11:15;98066.00;;;21.20
35582;BMP180;21687;48.900;9.188;2023-05-21T08:13:41;98060.00;;;21.70
35582;BMP180;21687;48.900;9.188;2023-05-21T08:16:08;98058.00;;;22.20
35582;BMP180;21687;48.900;9.188;2023-05-21T08:18:34;98063.00;;;22.30
35582;BMP180;21687;48.900;9.188;2023-05-21T08:21:01;98067.00;;;21.60
35582;BMP180;21687;48.900;9.188;2023-05-21T08:23:27;98056.00;;;21.50
35582;BMP180;21687;48.900;9.188;2023-05-21T08:25:53;98065.00;;;21.40
35582;BMP180;21687;48.900;9.188;2023-05-21T08:28:21;98064.00;;;21.40
35582;BMP180;21687;48.900;9.188;2023-05-21T08:30:48;98063.00;;;21.30
35582;BMP180;21687;48.900;9.188;2023-05-21T08:33:14;98064.00;;;21.80
35582;BMP180;21687;48.900;9.188;2023-05-21T08:35:40;98063.00;;;21.80
35582;BMP180;21687;48.900;9.188;2023-05-21T08:38:06;98063.00;;;22.60
35582;BMP180;21687;48.900;9.188;2023-05-21T08:40:33;98062.00;;;22.40
35582;BMP180;21687;48.900;9.188;2023-05-21T08:43:00;98065.00;;;22.40
35582;BMP180;21687;48.900;9.188;2023-05-21T08:45:27;98066.00;;;22.50
35582;BMP180;21687;48.900;9.188;2023-05-21T08:47:57;98068.00;;;23.00
35582;BMP180;21687;48.900;9.188;2023-05-21T08:50:26;98073.00;;;23.20
35582;BMP180;21687;48.900;9.188;2023-05-21T08:52:52;98068.00;;;22.80
35582;BMP180;21687;48.900;9.188;2023-05-21T08:55:20;98069.00;;;23.10
35582;BMP180;21687;48.900;9.188;2023-05-21T08:57:48;98064.00;;;23.10
35582;BMP180;21687;48.900;9.188;2023-05-21T09:00:15;98071.00;;;23.30
35582;BMP180;21687;48.900;9.188;2023-05-21T09:02:42;98071.00;;;23.50
35582;BMP180;21687;48.900;9.188;2023-05-21T09:05:09;98071.00;;;24.10
35582;BMP180;21687;48.900;9.188;2023-05-21T09:10:17;98082.00;;;22.50
35582;BMP180;21687;48.900;9.188;2023-05-21T09:12:43;98073.00;;;22.80
35582;BMP180;21687;48.900;9.188;2023-05-21T09:15:10;98077.00;;;23.20
35582;BMP180;21687;48.900;9.188;2023-05-21T09:17:36;98082.00;;;23.10
35582;BMP180;21687;48.900;9.188;2023-05-21T09:20:07;98081.00;;;23.20
35582;BMP180;21687;48.900;9.188;2023-05-21T09:22:58;98078.00;;;23.00
35582;BMP180;21687;48.900;9.188;2023-05-21T09:25:24;98077.00;;;22.60
35582;BMP180;21687;48.900;9.188;2023-05-21T09:27:54;98086.00;;;22.60
35582;BMP180;21687;48.900;9.188;2023-05-21T09:30:21;98083.00;;;22.10
35582;BMP180;21687;48.900;9.188;2023-05-21T09:32:55;98079.00;;;22.30
35582;BMP180;21687;48.900;9.188;2023-05-21T09:35:21;98093.00;;;22.50
35582;BMP180;21687;48.900;9.188;2023-05-21T09:37:49;98088.00;;;22.40
35582;BMP180;21687;48.900;9.188;2023-05-21T09:40:19;98083.00;;;22.30
35582;BMP180;21687;48.900;9.188;2023-05-21T09:42:49;98069.00;;;22.70
35582;BMP180;21687;48.900;9.188;2023-05-21T09:45:20;98082.00;;;22.90
35582;BMP180;21687;48.900;9.188;2023-05-21T09:47:48;98075.00;;;22.70
35582;BMP180;21687;48.900;9.188;2023-05-21T09:50:19;98079.00;;;23.00
35582;BMP180;21687;48.900;9.188;2023-05-21T09:52:46;98083.00;;;23.30
35582;BMP180;21687;48.900;9.188;2023-05-21T09:55:13;98084.00;;;23.30
35582;BMP180;21687;48.900;9.188;2023-05-21T09:57:43;98076.00;;;23.90
35582;BMP180;21687;48.900;9.188;2023-05-21T10:00:18;98088.00;;;23.70
35582;BMP180;21687;48.900;9.188;2023-05-21T10:02:49;98084.00;;;24.20
35582;BMP180;21687;48.900;9.188;2023-05-21T10:05:19;98078.00;;;24.10
35582;BMP180;21687;48.900;9.188;2023-05-21T10:07:50;98076.00;;;24.70
35582;BMP180;21687;48.900;9.188;2023-05-21T10:10:19;98075.00;;;24.90
35582;BMP180;21687;48.900;9.188;2023-05-21T10:12:48;98074.00;;;25.30
35582;BMP180;21687;48.900;9.188;2023-05-21T10:15:18;98076.00;;;25.30
35582;BMP180;21687;48.900;9.188;2023-05-21T10:17:47;98080.00;;;25.00
35582;BMP180;21687;48.900;9.188;2023-05-21T10:20:15;98068.00;;;24.90
35582;BMP180;21687;48.900;9.188;2023-05-21T10:22:41;98064.00;;;25.20
35582;BMP180;21687;48.900;9.188;2023-05-21T10:25:09;98054.00;;;24.80
35582;BMP180;21687;48.900;9.188;2023-05-21T10:27:36;98049.00;;;25.20
35582;BMP180;21687;48.900;9.188;2023-05-21T10:30:05;98065.00;;;25.70
35582;BMP180;21687;48.900;9.188;2023-05-21T10:32:32;98061.00;;;25.40
35582;BMP180;21687;48.900;9.188;2023-05-21T10:34:59;98065.00;;;25.10
35582;BMP180;21687;48.900;9.188;2023-05-21T10:37:27;98064.00;;;25.20
35582;BMP180;21687;48.900;9.188;2023-05-21T10:39:55;98064.00;;;25.40
35582;BMP180;21687;48.900;9.188;2023-05-21T10:50:45;98065.00;;;25.90
35582;BMP180;21687;48.900;9.188;2023-05-21T11:01:10;98056.00;;;26.90
35582;BMP180;21687;48.900;9.188;2023-05-21T11:03:37;98056.00;;;26.50
35582;BMP180;21687;48.900;9.188;2023-05-21T11:06:04;98060.00;;;26.70
35582;BMP180;21687;48.900;9.188;2023-05-21T11:08:31;98060.00;;;26.30
35582;BMP180;21687;48.900;9.188;2023-05-21T11:11:01;98065.00;;;25.80
35582;BMP180;21687;48.900;9.188;2023-05-21T11:13:43;98064.00;;;25.90
35582;BMP180;21687;48.900;9.188;2023-05-21T11:16:14;98060.00;;;26.20
35582;BMP180;21687;48.900;9.188;2023-05-21T11:18:55;98060.00;;;25.80
35582;BMP180;21687;48.900;9.188;2023-05-21T11:21:22;98062.00;;;25.90
35582;BMP180;21687;48.900;9.188;2023-05-21T11:24:01;98060.00;;;25.90
35582;BMP180;21687;48.900;9.188;2023-05-21T11:29:13;98063.00;;;25.50
35582;BMP180;21687;48.900;9.188;2023-05-21T11:31:45;98061.00;;;25.50
35582;BMP180;21687;48.900;9.188;2023-05-21T11:34:13;98057.00;;;25.80
35582;BMP180;21687;48.900;9.188;2023-05-21T11:36:47;98056.00;;;25.90
35582;BMP180;21687;48.900;9.188;2023-05-21T11:39:17;98060.00;;;26.20
35582;BMP180;21687;48.900;9.188;2023-05-21T11:41:57;98061.00;;;26.80
35582;BMP180;21687;48.900;9.188;2023-05-21T11:44:44;98066.00;;;26.50
35582;BMP180;21687;48.900;9.188;2023-05-21T11:47:12;98059.00;;;26.30
35582;BMP180;21687;48.900;9.188;2023-05-21T11:49:39;98058.00;;;25.50
35582;BMP180;21687;48.900;9.188;2023-05-21T11:52:07;98055.00;;;25.30
35582;BMP180;21687;48.900;9.188;2023-05-21T11:54:47;98057.00;;;25.30
35582;BMP180;21687;48.900;9.188;2023-05-21T11:57:16;98062.00;;;25.60
35582;BMP180;21687;48.900;9.188;2023-05-21T11:59:44;98055.00;;;25.60
35582;BMP180;21687;48.900;9.188;2023-05-21T12:02:15;98051.00;;;25.20
35582;BMP180;21687;48.900;9.188;2023-05-21T12:04:41;98055.00;;;25.30
35582;BMP180;21687;48.900;9.188;2023-05-21T12:07:09;98050.00;;;25.20
35582;BMP180;21687;48.900;9.188;2023-05-21T12:09:42;98057.00;;;24.90
35582;BMP180;21687;48.900;9.188;2023-05-21T12:12:09;98051.00;;;25.20
35582;BMP180;21687;48.900;9.188;2023-05-21T12:14:36;98058.00;;;24.90
35582;BMP180;21687;48.900;9.188;2023-05-21T12:17:03;98051.00;;;25.20
35582;BMP180;21687;48.900;9.188;2023-05-21T12:19:33;98061.00;;;25.30
35582;BMP180;21687;48.900;9.188;2023-05-21T12:22:04;98046.00;;;25.40
35582;BMP180;21687;48.900;9.188;2023-05-21T12:24:31;98054.00;;;25.60
35582;BMP180;21687;48.900;9.188;2023-05-21T12:26:59;98051.00;;;25.50
35582;BMP180;21687;48.900;9.188;2023-05-21T12:29:27;98049.00;;;25.90
35582;BMP180;21687;48.900;9.188;2023-05-21T12:31:59;98051.00;;;25.70
35582;BMP180;21687;48.900;9.188;2023-05-21T12:34:48;98051.00;;;25.90
35582;BMP180;21687;48.900;9.188;2023-05-21T12:37:24;98047.00;;;26.00
35582;BMP180;21687;48.900;9.188;2023-05-21T12:39:53;98048.00;;;25.90
35582;BMP180;21687;48.900;9.188;2023-05-21T12:42:30;98049.00;;;25.80
35582;BMP180;21687;48.900;9.188;2023-05-21T12:44:57;98050.00;;;25.30
35582;BMP180;21687;48.900;9.188;2023-05-21T12:47:24;98045.00;;;25.20
35582;BMP180;21687;48.900;9.188;2023-05-21T12:49:55;98050.00;;;25.10
35582;BMP180;21687;48.900;9.188;2023-05-21T12:52:22;98052.00;;;24.90
35582;BMP180;21687;48.900;9.188;2023-05-21T12:54:51;98054.00;;;24.90
35582;BMP180;21687;48.900;9.188;2023-05-21T12:57:19;98051.00;;;25.30
35582;BMP180;21687;48.900;9.188;2023-05-21T12:59:47;98053.00;;;25.60
35582;BMP180;21687;48.900;9.188;2023-05-21T13:02:15;98050.00;;;25.50
35582;BMP180;21687;48.900;9.188;2023-05-21T13:04:41;98052.00;;;25.40
35582;BMP180;21687;48.900;9.188;2023-05-21T13:07:08;98050.00;;;25.20
35582;BMP180;21687;48.900;9.188;2023-05-21T13:09:34;98045.00;;;25.80
35582;BMP180;21687;48.900;9.188;2023-05-21T13:12:00;98050.00;;;26.10
35582;BMP180;21687;48.900;9.188;2023-05-21T13:14:26;98050.00;;;26.20
35582;BMP180;21687;48.900;9.188;2023-05-21T13:16:52;98055.00;;;26.10
35582;BMP180;21687;48.900;9.188;2023-05-21T13:19:19;98046.00;;;26.50
35582;BMP180;21687;48.900;9.188;2023-05-21T13:21:45;98045.00;;;26.50
35582;BMP180;21687;48.900;9.188;2023-05-21T13:24:11;98049.00;;;26.60
35582;BMP180;21687;48.900;9.188;2023-05-21T13:26:37;98046.00;;;27.10
35582;BMP180;21687;48.900;9.188;2023-05-21T13:29:04;98045.00;;;26.80
35582;BMP180;21687;48.900;9.188;2023-05-21T13:31:30;98039.00;;;27.10
35582;BMP180;21687;48.900;9.188;2023-05-21T13:33:56;98046.00;;;27.20
35582;BMP180;21687;48.900;9.188;2023-05-21T13:36:22;98035.00;;;27.00
35582;BMP180;21687;48.900;9.188;2023-05-21T13:38:48;98039.00;;;26.90
35582;BMP180;21687;48.900;9.188;2023-05-21T13:41:15;98038.00;;;27.10
35582;BMP180;21687;48.900;9.188;2023-05-21T13:43:44;98043.00;;;27.20
35582;BMP180;21687;48.900;9.188;2023-05-21T13:46:10;98040.00;;;26.80
35582;BMP180;21687;48.900;9.188;2023-05-21T13:48:36;98047.00;;;26.50
35582;BMP180;21687;48.900;9.188;2023-05-21T13:51:03;98037.00;;;26.40
35582;BMP180;21687;48.900;9.188;2023-05-21T13:53:29;98050.00;;;26.50
35582;BMP180;21687;48.900;9.188;2023-05-21T13:55:55;98039.00;;;26.30
35582;BMP180;21687;48.900;9.188;2023-05-21T13:58:21;98040.00;;;26.20
35582;BMP180;21687;48.900;9.188;2023-05-21T14:00:48;98039.00;;;26.20
35582;BMP180;21687;48.900;9.188;2023-05-21T14:03:14;98036.00;;;26.70
35582;BMP180;21687;48.900;9.188;2023-05-21T14:05:40;98046.00;;;26.70
35582;BMP180;21687;48.900;9.188;2023-05-21T14:08:06;98039.00;;;26.50
35582;BMP180;21687;48.900;9.188;2023-05-21T14:10:33;98044.00;;;26.40
35582;BMP180;21687;48.900;9.188;2023-05-21T14:12:59;98044.00;;;26.80
35582;BMP180;21687;48.900;9.188;2023-05-21T14:15:25;98041.00;;;27.20
35582;BMP180;21687;48.900;9.188;2023-05-21T14:17:51;98048.00;;;27.40
35582;BMP180;21687;48.900;9.188;2023-05-21T14:20:18;98045.00;;;27.30
35582;BMP180;21687;48.900;9.188;2023-05-21T14:22:45;98044.00;;;27.70
35582;BMP180;21687;48.900;9.188;2023-05-21T14:25:11;98045.00;;;27.30
35582;BMP180;21687;48.900;9.188;2023-05-21T14:27:37;98042.00;;;27.40
35582;BMP180;21687;48.900;9.188;2023-05-21T14:30:04;98042.00;;;27.40
35582;BMP180;21687;48.900;9.188;2023-05-21T14:32:30;98038.00;;;27.10
35582;BMP180;21687;48.900;9.188;2023-05-21T14:34:57;98044.00;;;27.10
35582;BMP180;21687;48.900;9.188;2023-05-21T14:37:24;98048.00;;;26.90